createdAt,value
2019-05-01T00:02:19.610Z,43.40
2019-05-01T00:33:49.346Z,43.33
2019-05-01T00:36:38.796Z,39.60
2019-05-01T00:39:48.617Z,41.00
2019-05-01T00:42:38.786Z,39.50
2019-05-01T00:45:28.363Z,41.00
2019-05-01T00:48:18.102Z,45.37
2019-05-01T00:51:07.573Z,44.40
2019-05-01T00:53:57.904Z,42.53
2019-05-01T00:56:48.724Z,47.47
2019-05-01T00:59:56.984Z,39.60
2019-05-01T01:02:49.706Z,43.03
2019-05-01T01:05:40.101Z,43.33
2019-05-01T01:08:29.669Z,46.63
2019-05-01T01:11:09.851Z,50.23
2019-05-01T01:14:01.737Z,46.27
2019-05-01T01:17:10.759Z,42.60
2019-05-01T01:20:00.295Z,45.43
2019-05-01T01:23:04.135Z,44.37
2019-05-01T01:25:41.085Z,50.20
2019-05-01T01:28:30.498Z,41.50
2019-05-01T01:31:20.120Z,37.60
2019-05-01T01:34:09.676Z,44.03
2019-05-01T01:36:59.278Z,40.07
2019-05-01T01:39:48.706Z,40.10
2019-05-01T01:42:58.616Z,39.90
2019-05-01T01:45:49.610Z,40.90
2019-05-01T01:48:39.233Z,41.57
2019-05-01T01:51:29.137Z,41.70
2019-05-01T01:54:18.922Z,39.43
2019-05-01T01:57:08.364Z,38.53
2019-05-01T01:59:49.777Z,41.60
2019-05-01T02:02:50.347Z,48.57
2019-05-01T02:05:32.991Z,45.37
2019-05-01T02:08:14.477Z,46.07
2019-05-01T02:10:54.774Z,46.97
2019-05-01T02:14:03.023Z,46.43
2019-05-01T02:20:19.746Z,45.50
2019-05-01T02:23:27.967Z,43.23
2019-05-01T02:32:17.830Z,47.57
2019-05-01T02:35:08.106Z,42.67
2019-05-01T02:37:58.302Z,42.13
2019-05-01T02:44:51.241Z,45.03
2019-05-01T02:48:01.039Z,40.77
2019-05-01T02:51:11.074Z,42.17
2019-05-01T02:53:52.361Z,43.67
2019-05-01T02:56:52.991Z,45.57
2019-05-01T02:59:34.603Z,43.37
2019-05-01T03:02:16.147Z,45.37
2019-05-01T03:04:57.702Z,45.70
2019-05-01T03:07:39.326Z,46.60
2019-05-01T03:10:21.461Z,40.97
2019-05-01T03:13:04.708Z,50.07
2019-05-01T03:15:45.893Z,45.00
2019-05-01T03:18:33.155Z,41.97
2019-05-01T03:21:33.486Z,49.63
2019-05-01T03:24:17.431Z,42.90
2019-05-01T03:27:06.876Z,46.30
2019-05-01T03:29:56.223Z,44.40
2019-05-01T03:33:05.849Z,43.87
2019-05-01T03:35:55.364Z,44.83
2019-05-01T03:38:44.714Z,44.80
2019-05-01T03:41:25.217Z,43.33
2019-05-01T03:44:14.872Z,41.37
2019-05-01T03:47:04.747Z,40.67
2019-05-01T03:49:54.057Z,48.23
2019-05-01T03:52:43.617Z,44.53
2019-05-01T03:55:14.012Z,42.20
2019-05-01T04:01:33.883Z,46.53
2019-05-01T04:07:38.127Z,48.80
2019-05-01T04:10:27.923Z,44.73
2019-05-01T04:13:17.428Z,39.93
2019-05-01T04:16:09.515Z,44.00
2019-05-01T04:22:28.819Z,43.43
2019-05-01T04:25:18.295Z,39.47
2019-05-01T04:28:26.819Z,42.50
2019-05-01T04:31:35.005Z,43.60
2019-05-01T04:34:43.628Z,44.80
2019-05-01T04:40:10.236Z,47.50
2019-05-01T04:43:02.833Z,44.40
2019-05-01T04:45:52.903Z,39.30
2019-05-01T04:48:24.548Z,44.97
2019-05-01T04:51:13.790Z,42.47
2019-05-01T04:54:03.406Z,47.37
2019-05-01T04:56:33.854Z,41.70
2019-05-01T04:59:04.817Z,42.37
2019-05-01T05:08:21.821Z,45.93
2019-05-01T05:14:21.457Z,41.17
2019-05-01T05:17:11.001Z,37.20
2019-05-01T05:20:00.712Z,42.67
2019-05-01T05:22:50.015Z,43.70
2019-05-01T05:25:39.727Z,41.70
2019-05-01T05:28:49.438Z,38.37
2019-05-01T05:35:08.819Z,39.03
2019-05-01T05:38:18.520Z,40.97
2019-05-01T05:40:49.593Z,36.43
2019-05-01T05:43:19.967Z,38.23
2019-05-01T05:45:51.194Z,33.13
2019-05-01T05:49:00.807Z,34.23
2019-05-01T05:51:52.161Z,27.63
2019-05-01T05:54:44.648Z,30.90
2019-05-01T05:57:55.263Z,30.07
2019-05-01T06:00:56.174Z,32.87
2019-05-01T06:03:57.232Z,33.97
2019-05-01T06:06:57.766Z,30.10
2019-05-01T06:09:44.644Z,29.30
2019-05-01T06:12:37.268Z,30.57
2019-05-01T06:15:45.703Z,29.07
2019-05-01T06:21:25.295Z,26.83
2019-05-01T06:24:14.620Z,28.03
2019-05-01T06:26:48.201Z,25.47
2019-05-01T06:29:52.190Z,27.37
2019-05-01T06:32:10.247Z,28.20
2019-05-01T06:34:43.583Z,28.53
2019-05-01T06:37:14.306Z,23.73
2019-05-01T06:42:45.676Z,27.30
2019-05-01T06:52:24.853Z,25.10
2019-05-01T06:54:55.463Z,24.57
2019-05-01T06:57:48.662Z,23.17
2019-05-01T07:03:31.807Z,21.97
2019-05-01T07:06:21.175Z,23.20
2019-05-01T07:09:11.829Z,22.67
2019-05-01T07:12:03.787Z,22.50
2019-05-01T07:14:34.292Z,21.90
2019-05-01T07:17:23.604Z,23.37
2019-05-01T07:20:16.597Z,22.80
2019-05-01T07:26:37.488Z,20.87
2019-05-01T07:29:12.221Z,23.77
2019-05-01T07:32:05.986Z,23.57
2019-05-01T07:34:33.932Z,24.40
2019-05-01T07:37:27.800Z,23.77
2019-05-01T07:40:00.807Z,23.93
2019-05-01T07:45:52.956Z,29.13
2019-05-01T07:52:16.687Z,28.53
2019-05-01T07:56:06.210Z,27.07
2019-05-01T07:58:30.488Z,24.07
2019-05-01T08:01:20.148Z,21.17
2019-05-01T08:06:56.964Z,23.33
2019-05-01T08:09:25.162Z,25.20
2019-05-01T08:12:23.905Z,23.67
2019-05-01T08:15:49.494Z,22.43
2019-05-01T08:21:52.052Z,21.53
2019-05-01T08:24:24.799Z,20.27
2019-05-01T08:26:55.467Z,19.03
2019-05-01T08:30:03.624Z,20.40
2019-05-01T08:32:52.802Z,20.10
2019-05-01T08:35:42.196Z,20.87
2019-05-01T08:38:36.091Z,18.83
2019-05-01T08:41:31.296Z,20.53
2019-05-01T08:44:24.931Z,16.03
2019-05-01T08:50:26.043Z,21.30
2019-05-01T08:53:07.676Z,16.83
2019-05-01T08:55:57.454Z,17.33
2019-05-01T08:58:27.828Z,18.30
2019-05-01T09:00:58.237Z,18.07
2019-05-01T09:04:13.154Z,14.67
2019-05-01T09:10:00.514Z,16.00
2019-05-01T09:12:52.060Z,14.00
2019-05-01T09:15:55.992Z,16.33
2019-05-01T09:18:29.202Z,15.43
2019-05-01T09:21:24.275Z,17.90
2019-05-01T09:24:13.783Z,17.33
2019-05-01T09:27:18.908Z,15.40
2019-05-01T09:30:27.005Z,15.33
2019-05-01T09:33:18.446Z,14.03
2019-05-01T09:36:23.261Z,16.57
2019-05-01T09:38:53.111Z,15.10
2019-05-01T09:41:47.509Z,13.37
2019-05-01T09:44:21.673Z,15.53
2019-05-01T09:47:11.469Z,12.10
2019-05-01T09:50:01.246Z,15.17
2019-05-01T09:53:08.740Z,13.33
2019-05-01T09:56:18.895Z,12.53
2019-05-01T09:58:49.996Z,10.60
2019-05-01T10:01:40.782Z,12.73
2019-05-01T10:04:32.407Z,9.40
2019-05-01T10:10:00.270Z,10.70
2019-05-01T10:12:54.085Z,12.40
2019-05-01T10:18:56.861Z,9.40
2019-05-01T10:21:28.897Z,9.17
2019-05-01T10:24:18.740Z,9.80
2019-05-01T10:30:31.626Z,9.80
2019-05-01T10:33:21.642Z,10.73
2019-05-01T10:36:18.317Z,10.63
2019-05-01T10:41:46.251Z,9.47
2019-05-01T10:44:16.893Z,10.13
2019-05-01T10:47:06.523Z,10.97
2019-05-01T10:49:58.932Z,9.63
2019-05-01T10:52:48.889Z,10.50
2019-05-01T10:56:06.887Z,10.50
2019-05-01T10:58:56.441Z,17.47
2019-05-01T11:04:45.365Z,12.83
2019-05-01T11:07:36.239Z,12.60
2019-05-01T11:10:28.046Z,9.27
2019-05-01T11:13:22.338Z,11.30
2019-05-01T11:22:06.325Z,15.70
2019-05-01T11:24:39.621Z,15.40
2019-05-01T11:27:33.107Z,13.33
2019-05-01T11:30:00.957Z,12.83
2019-05-01T11:32:51.639Z,10.03
2019-05-01T11:36:09.379Z,14.43
2019-05-01T11:39:10.135Z,13.77
2019-05-01T11:42:04.299Z,11.53
2019-05-01T11:47:50.741Z,10.83
2019-05-01T11:53:48.467Z,12.23
2019-05-01T11:59:43.698Z,10.73
2019-05-01T12:02:37.851Z,11.07
2019-05-01T12:14:11.063Z,10.17
2019-05-01T12:19:49.989Z,12.30
2019-05-01T12:22:21.746Z,10.10
2019-05-01T12:25:11.501Z,12.57
2019-05-01T12:27:43.116Z,10.53
2019-05-01T12:36:35.993Z,11.23
2019-05-01T12:39:18.248Z,11.27
2019-05-01T12:42:00.318Z,9.03
2019-05-01T12:44:32.097Z,9.93
2019-05-01T12:47:41.535Z,11.43
2019-05-01T12:50:12.746Z,13.00
2019-05-01T12:56:04.302Z,10.37
2019-05-01T13:01:44.772Z,9.90
2019-05-01T13:04:28.136Z,9.03
2019-05-01T13:09:53.788Z,10.77
2019-05-01T13:12:28.987Z,11.30
2019-05-01T13:15:18.321Z,11.40
2019-05-01T13:18:39.229Z,8.23
2019-05-01T13:20:24.117Z,12.33
2019-05-01T13:23:14.893Z,11.03
2019-05-01T13:26:24.488Z,9.63
2019-05-01T13:29:33.026Z,10.50
2019-05-01T13:32:41.189Z,9.87
2019-05-01T13:35:11.696Z,9.20
2019-05-01T13:37:42.330Z,9.07
2019-05-01T13:40:13.721Z,10.27
2019-05-01T13:43:03.931Z,8.00
2019-05-01T13:45:53.194Z,8.20
2019-05-01T13:48:42.956Z,8.43
2019-05-01T13:51:13.343Z,8.47
2019-05-01T13:56:45.038Z,9.80
2019-05-01T13:59:16.268Z,10.50
2019-05-01T14:01:46.644Z,8.27
2019-05-01T14:07:17.047Z,7.10
2019-05-01T14:10:06.344Z,7.70
2019-05-01T14:12:55.632Z,7.70
2019-05-01T14:15:48.557Z,11.53
2019-05-01T14:18:19.724Z,7.97
2019-05-01T14:21:12.142Z,6.40
2019-05-01T14:24:01.351Z,7.57
2019-05-01T14:27:08.317Z,5.63
2019-05-01T14:30:07.155Z,6.03
2019-05-01T14:32:25.996Z,8.63
2019-05-01T14:35:03.626Z,11.07
2019-05-01T14:37:36.035Z,6.97
2019-05-01T14:40:09.475Z,9.13
2019-05-01T14:42:58.791Z,7.83
2019-05-01T14:45:32.223Z,5.90
2019-05-01T14:48:02.594Z,7.53
2019-05-01T14:50:55.585Z,6.73
2019-05-01T14:53:46.301Z,8.73
2019-05-01T14:56:20.194Z,6.53
2019-05-01T14:58:53.847Z,6.33
2019-05-01T15:01:43.334Z,4.60
2019-05-01T15:04:33.063Z,6.03
2019-05-01T15:07:24.453Z,5.03
2019-05-01T15:10:14.365Z,4.77
2019-05-01T15:19:10.959Z,4.77
2019-05-01T15:21:41.314Z,5.17
2019-05-01T15:27:24.655Z,5.97
2019-05-01T15:30:34.569Z,4.90
2019-05-01T15:36:36.842Z,5.40
2019-05-01T15:44:50.009Z,5.97
2019-05-01T15:47:42.151Z,6.07
2019-05-01T15:50:33.804Z,8.17
2019-05-01T15:53:26.810Z,5.07
2019-05-01T15:56:17.137Z,4.93
2019-05-01T15:59:07.167Z,6.20
2019-05-01T16:01:39.993Z,5.03
2019-05-01T16:04:29.847Z,7.13
2019-05-01T16:07:20.219Z,6.77
2019-05-01T16:09:52.309Z,5.33
2019-05-01T16:18:06.913Z,4.43
2019-05-01T16:20:56.292Z,6.30
2019-05-01T16:23:45.860Z,7.07
2019-05-01T16:26:19.323Z,7.63
2019-05-01T16:28:52.704Z,5.90
2019-05-01T16:31:42.057Z,10.93
2019-05-01T16:34:12.493Z,8.27
2019-05-01T16:37:04.858Z,6.97
2019-05-01T16:40:06.890Z,10.03
2019-05-01T16:42:45.234Z,11.20
2019-05-01T16:45:34.714Z,5.77
2019-05-01T16:48:05.651Z,10.60
2019-05-01T16:50:54.953Z,7.40
2019-05-01T16:53:44.543Z,4.63
2019-05-01T16:56:27.830Z,6.67
2019-05-01T16:58:49.659Z,8.97
2019-05-01T17:04:39.754Z,5.60
2019-05-01T17:07:29.204Z,5.30
2019-05-01T17:10:20.277Z,5.17
2019-05-01T17:13:13.501Z,5.43
2019-05-01T17:16:23.150Z,5.83
2019-05-01T17:19:12.884Z,8.53
2019-05-01T17:21:44.922Z,7.90
2019-05-01T17:24:16.530Z,6.67
2019-05-01T17:27:26.503Z,8.03
2019-05-01T17:29:56.905Z,8.83
2019-05-01T17:38:14.366Z,7.43
2019-05-01T17:41:03.861Z,9.00
2019-05-01T17:43:34.156Z,8.80
2019-05-01T17:46:27.634Z,6.87
2019-05-01T17:49:16.985Z,7.80
2019-05-01T17:52:09.920Z,7.73
2019-05-01T17:55:01.505Z,7.77
2019-05-01T18:00:37.725Z,14.47
2019-05-01T18:03:47.796Z,12.70
2019-05-01T18:06:25.087Z,6.27
2019-05-01T18:09:17.198Z,6.90
2019-05-01T18:15:40.901Z,6.13
2019-05-01T18:18:43.141Z,7.10
2019-05-01T18:21:32.870Z,8.90
2019-05-01T18:24:47.332Z,7.93
2019-05-01T18:33:57.104Z,6.20
2019-05-01T18:37:04.880Z,5.97
2019-05-01T18:49:01.787Z,7.50
2019-05-01T18:52:02.600Z,7.93
2019-05-01T18:54:35.100Z,8.83
2019-05-01T18:57:24.027Z,14.50
2019-05-01T18:59:54.318Z,5.97
2019-05-01T19:02:26.752Z,9.30
2019-05-01T19:05:04.152Z,9.47
2019-05-01T19:07:33.828Z,9.40
2019-05-01T19:10:24.800Z,12.73
2019-05-01T19:18:42.422Z,10.13
2019-05-01T19:27:57.906Z,9.47
2019-05-01T19:30:30.791Z,11.23
2019-05-01T19:36:08.033Z,8.53
2019-05-01T19:38:41.258Z,10.57
2019-05-01T19:41:14.347Z,11.10
2019-05-01T19:44:09.131Z,9.90
2019-05-01T19:47:07.753Z,10.17
2019-05-01T19:52:52.309Z,7.70
2019-05-01T19:55:23.354Z,11.17
2019-05-01T19:58:14.023Z,9.00
2019-05-01T20:03:54.223Z,10.73
2019-05-01T20:06:29.022Z,10.80
2019-05-01T20:09:18.032Z,7.27
2019-05-01T20:12:04.815Z,10.50
2019-05-01T20:14:35.517Z,10.13
2019-05-01T20:17:24.871Z,11.37
2019-05-01T20:19:55.454Z,9.57
2019-05-01T20:22:26.443Z,12.97
2019-05-01T20:25:19.479Z,9.23
2019-05-01T20:28:28.318Z,9.70
2019-05-01T20:30:58.375Z,14.27
2019-05-01T20:33:50.237Z,15.77
2019-05-01T20:39:17.279Z,13.50
2019-05-01T20:45:22.360Z,9.57
2019-05-01T20:47:55.126Z,8.17
2019-05-01T20:50:28.772Z,10.13
2019-05-01T20:52:59.622Z,9.30
2019-05-01T20:55:30.094Z,14.67
2019-05-01T20:58:24.668Z,10.07
2019-05-01T21:01:05.258Z,10.37
2019-05-01T21:03:38.800Z,12.20
2019-05-01T21:06:30.310Z,11.40
2019-05-01T21:09:20.323Z,13.27
2019-05-01T21:14:49.596Z,11.17
2019-05-01T21:17:19.886Z,12.83
2019-05-01T21:20:09.548Z,13.47
2019-05-01T21:22:59.157Z,14.70
2019-05-01T21:25:35.112Z,12.70
2019-05-01T21:28:07.275Z,11.47
2019-05-01T21:30:38.711Z,15.60
2019-05-01T21:33:29.090Z,11.37
2019-05-01T21:36:18.802Z,13.33
2019-05-01T21:39:10.144Z,14.03
2019-05-01T21:41:59.533Z,14.73
2019-05-01T21:44:50.108Z,11.27
2019-05-01T21:47:42.653Z,11.27
2019-05-01T21:50:33.570Z,12.90
2019-05-01T21:53:06.877Z,13.20
2019-05-01T21:55:40.798Z,8.80
2019-05-01T21:58:11.063Z,11.87
2019-05-01T22:01:01.788Z,12.00
2019-05-01T22:03:32.222Z,10.83
2019-05-01T22:06:23.001Z,12.60
2019-05-01T22:09:16.531Z,15.57
2019-05-01T22:12:08.200Z,11.07
2019-05-01T22:15:00.283Z,15.23
2019-05-01T22:18:15.297Z,15.57
2019-05-01T22:24:21.655Z,12.10
2019-05-01T22:26:59.173Z,12.83
2019-05-01T22:30:10.936Z,12.67
2019-05-01T22:32:59.304Z,13.40
2019-05-01T22:35:52.248Z,12.20
2019-05-01T22:38:41.597Z,11.73
2019-05-01T22:41:12.835Z,14.30
2019-05-01T22:43:43.270Z,15.23
2019-05-01T22:46:33.894Z,17.57
2019-05-01T22:49:24.043Z,11.53
2019-05-01T22:52:13.376Z,12.50
2019-05-01T22:55:04.088Z,11.27
2019-05-01T22:57:53.375Z,13.53
2019-05-01T23:00:45.747Z,13.93
2019-05-01T23:06:43.328Z,12.67
2019-05-01T23:09:33.177Z,14.90
2019-05-01T23:12:25.633Z,11.17
2019-05-01T23:15:20.367Z,15.27
2019-05-01T23:17:51.968Z,12.73
2019-05-01T23:20:22.916Z,12.50
2019-05-01T23:22:53.237Z,12.80
2019-05-01T23:25:42.856Z,12.13
2019-05-01T23:28:23.317Z,12.80
2019-05-01T23:30:54.190Z,12.40
2019-05-01T23:33:24.615Z,15.03
2019-05-01T23:35:55.053Z,12.10
2019-05-01T23:38:44.530Z,12.57
2019-05-01T23:41:45.088Z,15.27
2019-05-01T23:47:16.143Z,11.77
2019-05-01T23:50:05.656Z,11.73
2019-05-01T23:52:55.001Z,14.30
2019-05-01T23:55:47.770Z,15.43
2019-05-01T23:58:37.102Z,13.60
